Strong City, Kansas
Current Conditions -  °F | °C
As of 12:53 PM on Thursday 23 Oct 2014 (Local Time) from KEMP Reporting Station
Overcast Overcast  
Wind Chill: 66°   Ceiling: 1700
Heat Index: 66°   Visibility: 10mi
Dew Point: 61°   Wind: 10mph
Humidity: 84%   Direction: 220°SW
Pressure: 30.1"   Gusts: NA
Location:  38.4°N, 96.54°W
Report Text: KEMP 231753Z AUTO 22009KT 10SM OVC017 19/16 A3010 RMK AO2 SLP189 T01890161 10189 20161 58003
Loading
Personal Weather Stations






























Interactive Weather Map
Tropical Storm Tracking
New forecast layout! Learn more

10-Day Weather Forecast

Advertisements
Track Severe Weather on mobile